Time;durP1;ratioP1;P1;durP2;ratioP2;P2;SDS_P1;SDS_P2;PMS_P1;PMS_P2;Temp;Humidity;BMP_temperature;BMP_pressure;BME280_temperature;BME280_humidity;BME280_pressure;Samples;Min_cycle;Max_cycle;Signal;HPM_P1;HPM_P2
2023/12/17 00:01:53;;;;;;;18.70;7.43;;;9.10;99.90;;;;;;6156825;23;20065;-75
2023/12/17 00:04:19;;;;;;;16.23;7.85;;;9.10;99.90;;;;;;6130910;23;20030;-74
2023/12/17 00:06:47;;;;;;;21.20;8.43;;;9.10;99.90;;;;;;6131011;23;20049;-74
2023/12/17 00:09:13;;;;;;;21.88;7.90;;;9.10;99.90;;;;;;6131048;23;20028;-75
2023/12/17 00:11:42;;;;;;;22.38;8.40;;;9.10;99.90;;;;;;6130897;23;20017;-75
2023/12/17 00:14:11;;;;;;;25.30;8.02;;;9.10;99.90;;;;;;6130803;23;20025;-74
2023/12/17 00:16:36;;;;;;;23.17;7.95;;;9.10;99.90;;;;;;6130829;23;20017;-74
2023/12/17 00:19:02;;;;;;;20.23;8.18;;;9.10;99.90;;;;;;6130723;23;20029;-74
2023/12/17 00:21:28;;;;;;;17.75;7.25;;;9.10;99.90;;;;;;6130706;23;20017;-74
2023/12/17 00:23:53;;;;;;;20.83;8.52;;;9.20;99.90;;;;;;6130706;23;20018;-74
2023/12/17 00:26:19;;;;;;;21.48;8.55;;;9.10;99.90;;;;;;6156827;23;20025;-74
2023/12/17 00:28:44;;;;;;;18.55;7.40;;;9.10;99.90;;;;;;6130728;23;20072;-74
2023/12/17 00:31:10;;;;;;;21.20;8.55;;;9.10;99.90;;;;;;6130639;23;20018;-74
2023/12/17 00:33:36;;;;;;;17.52;7.20;;;9.10;99.90;;;;;;6130728;23;20346;-75
2023/12/17 00:36:02;;;;;;;21.17;8.82;;;9.20;99.90;;;;;;6156989;23;20457;-74
2023/12/17 00:38:27;;;;;;;18.75;8.52;;;9.10;99.90;;;;;;6130470;23;20029;-74
2023/12/17 00:40:53;;;;;;;20.15;7.90;;;9.10;99.90;;;;;;6156678;23;20402;-74
2023/12/17 00:43:19;;;;;;;20.33;8.35;;;9.10;99.90;;;;;;6130567;23;20064;-74
2023/12/17 00:45:44;;;;;;;20.02;8.23;;;9.10;99.90;;;;;;6130562;23;20017;-75
2023/12/17 00:48:10;;;;;;;19.95;8.52;;;9.10;99.90;;;;;;6130396;23;20017;-74
2023/12/17 00:50:35;;;;;;;21.70;7.88;;;9.10;99.90;;;;;;6130640;23;20060;-75
2023/12/17 00:53:01;;;;;;;18.17;7.78;;;9.10;99.90;;;;;;6130491;23;20057;-75
2023/12/17 00:55:27;;;;;;;18.02;8.95;;;9.10;99.90;;;;;;6130477;23;20426;-75
2023/12/17 00:57:52;;;;;;;22.17;8.38;;;9.10;99.90;;;;;;6130324;23;20100;-74
2023/12/17 01:00:18;;;;;;;17.50;8.45;;;9.10;99.90;;;;;;6130455;23;20438;-74
2023/12/17 01:02:45;;;;;;;20.30;8.30;;;9.20;99.90;;;;;;6156120;23;20018;-74
2023/12/17 01:05:12;;;;;;;16.27;7.72;;;9.20;99.90;;;;;;6156763;23;20080;-74
2023/12/17 01:07:37;;;;;;;23.02;8.23;;;9.20;99.90;;;;;;6130197;23;20434;-74
2023/12/17 01:10:03;;;;;;;21.33;7.63;;;9.20;99.90;;;;;;6130238;23;20028;-74
2023/12/17 01:12:29;;;;;;;17.55;8.27;;;9.20;99.90;;;;;;6130182;23;20481;-74
2023/12/17 01:14:54;;;;;;;20.90;8.68;;;9.20;99.90;;;;;;6130137;23;20025;-74
2023/12/17 01:17:20;;;;;;;19.73;8.80;;;9.20;99.90;;;;;;6156214;23;20022;-74
2023/12/17 01:19:46;;;;;;;16.02;7.75;;;9.20;99.90;;;;;;6130199;23;20009;-74
2023/12/17 01:22:11;;;;;;;20.52;8.48;;;9.20;99.90;;;;;;6130152;23;20057;-74
2023/12/17 01:24:39;;;;;;;21.85;8.05;;;9.20;99.90;;;;;;6130106;23;20097;-74
2023/12/17 01:27:05;;;;;;;17.33;7.78;;;9.20;99.90;;;;;;6130206;23;20065;-74
2023/12/17 01:29:30;;;;;;;23.08;8.80;;;9.20;99.90;;;;;;6130287;23;20390;-74
2023/12/17 01:31:57;;;;;;;19.35;7.72;;;9.20;99.90;;;;;;6130297;23;20021;-75
2023/12/17 01:34:23;;;;;;;18.20;7.65;;;9.30;99.90;;;;;;6130073;23;20021;-75
2023/12/17 01:36:49;;;;;;;20.65;6.88;;;9.30;99.90;;;;;;6156419;23;20065;-74
2023/12/17 01:39:16;;;;;;;16.70;7.60;;;9.20;99.90;;;;;;6131285;23;20100;-74
2023/12/17 01:41:42;;;;;;;20.88;7.35;;;9.30;99.90;;;;;;6130092;23;20509;-75
2023/12/17 01:44:08;;;;;;;20.77;7.70;;;9.20;99.90;;;;;;6130183;23;20025;-75
2023/12/17 01:46:34;;;;;;;20.38;7.43;;;9.30;99.90;;;;;;6130027;23;20337;-74
2023/12/17 01:49:00;;;;;;;20.20;7.53;;;9.20;99.90;;;;;;6130002;23;20437;-74
2023/12/17 01:51:26;;;;;;;17.92;7.47;;;9.30;99.90;;;;;;6129860;23;20056;-74
2023/12/17 01:53:52;;;;;;;21.50;7.30;;;9.30;99.90;;;;;;6130057;23;20017;-75
2023/12/17 01:56:18;;;;;;;15.98;6.18;;;9.20;99.90;;;;;;6156154;23;20025;-75
2023/12/17 01:58:44;;;;;;;21.92;6.78;;;9.20;99.90;;;;;;6129858;23;20100;-74
2023/12/17 02:01:11;;;;;;;17.42;7.10;;;9.20;99.90;;;;;;6131554;23;20013;-74
2023/12/17 02:03:37;;;;;;;24.58;7.50;;;9.20;99.90;;;;;;6131842;23;20141;-74
2023/12/17 02:06:08;;;;;;;23.40;7.43;;;9.20;99.90;;;;;;6131882;23;20021;-74
2023/12/17 02:08:35;;;;;;;18.45;7.55;;;9.20;99.90;;;;;;6132048;23;20497;-74
2023/12/17 02:11:01;;;;;;;20.15;7.35;;;9.20;99.90;;;;;;6131947;23;20040;-74
2023/12/17 02:13:27;;;;;;;18.77;7.47;;;9.20;99.90;;;;;;6132069;23;20092;-74
2023/12/17 02:15:52;;;;;;;18.23;7.78;;;9.20;99.90;;;;;;6132006;23;20029;-74
2023/12/17 02:18:18;;;;;;;14.95;7.03;;;9.20;99.90;;;;;;6131944;23;20020;-74
2023/12/17 02:20:44;;;;;;;18.55;7.10;;;9.20;99.90;;;;;;6131976;23;20014;-75
2023/12/17 02:23:10;;;;;;;16.60;6.22;;;9.30;99.90;;;;;;6131879;23;20064;-74
2023/12/17 02:25:36;;;;;;;17.65;6.88;;;9.30;99.90;;;;;;6131898;23;20018;-75
2023/12/17 02:28:01;;;;;;;15.95;6.68;;;9.30;99.90;;;;;;6131732;23;20042;-74
2023/12/17 02:30:30;;;;;;;20.48;7.35;;;9.30;99.90;;;;;;6131853;23;20022;-74
2023/12/17 02:32:55;;;;;;;17.40;7.05;;;9.30;99.90;;;;;;6131588;23;20498;-75
2023/12/17 02:35:21;;;;;;;17.20;7.32;;;9.30;99.90;;;;;;6131731;23;20072;-74
2023/12/17 02:37:50;;;;;;;22.80;7.93;;;9.30;99.90;;;;;;6131550;23;20024;-75
2023/12/17 02:40:16;;;;;;;16.23;7.35;;;9.20;99.90;;;;;;6131774;23;20025;-75
2023/12/17 02:42:42;;;;;;;21.58;7.82;;;9.30;99.90;;;;;;6131372;23;20045;-74
2023/12/17 02:45:09;;;;;;;17.30;7.90;;;9.20;99.90;;;;;;6131619;23;20056;-75
2023/12/17 02:47:35;;;;;;;19.00;7.53;;;9.30;99.90;;;;;;6131518;23;20024;-74
2023/12/17 02:50:01;;;;;;;15.00;7.03;;;9.30;99.90;;;;;;6131544;23;20040;-74
2023/12/17 02:52:26;;;;;;;18.63;7.57;;;9.30;99.90;;;;;;6131585;23;20025;-74
2023/12/17 02:54:55;;;;;;;20.85;8.02;;;9.30;99.90;;;;;;6131060;23;20010;-74
2023/12/17 02:57:24;;;;;;;20.00;7.25;;;9.30;99.90;;;;;;6131483;23;20464;-75
2023/12/17 02:59:52;;;;;;;15.13;6.53;;;9.30;99.90;;;;;;6131537;23;20022;-75
2023/12/17 03:02:18;;;;;;;15.05;7.30;;;9.30;99.90;;;;;;6157395;23;20022;-74
2023/12/17 03:04:46;;;;;;;18.10;7.70;;;9.30;99.90;;;;;;6131476;23;20075;-74
2023/12/17 03:07:13;;;;;;;16.73;7.90;;;9.30;99.90;;;;;;6157665;23;20009;-74
2023/12/17 03:09:38;;;;;;;17.10;7.80;;;9.30;99.90;;;;;;6131825;23;20036;-74
2023/12/17 03:12:04;;;;;;;13.75;7.30;;;9.30;99.90;;;;;;6131290;23;20017;-75
2023/12/17 03:14:33;;;;;;;14.25;7.95;;;9.30;99.90;;;;;;6131358;23;20386;-75
2023/12/17 03:16:59;;;;;;;13.85;7.18;;;9.30;99.90;;;;;;6131180;23;20025;-74
2023/12/17 03:19:27;;;;;;;20.90;8.93;;;9.30;99.90;;;;;;6131216;23;20021;-74
2023/12/17 03:21:53;;;;;;;16.20;6.82;;;9.30;99.90;;;;;;6131392;23;20068;-74
2023/12/17 03:24:19;;;;;;;18.85;8.10;;;9.30;99.90;;;;;;6131378;23;20021;-74
2023/12/17 03:26:44;;;;;;;17.05;7.20;;;9.30;99.90;;;;;;6131297;23;20014;-74
2023/12/17 03:29:10;;;;;;;13.18;6.72;;;9.30;99.90;;;;;;6157654;23;20044;-74
2023/12/17 03:31:35;;;;;;;19.27;7.30;;;9.30;99.90;;;;;;6131296;23;20056;-75
2023/12/17 03:34:02;;;;;;;16.17;7.30;;;9.30;99.90;;;;;;6131234;23;20036;-75
2023/12/17 03:36:28;;;;;;;16.88;7.60;;;9.30;99.90;;;;;;6131337;23;20051;-74
2023/12/17 03:38:53;;;;;;;17.27;6.75;;;9.20;99.90;;;;;;6157246;23;20017;-74
2023/12/17 03:41:26;;;;;;;20.98;7.50;;;9.20;99.90;;;;;;6131231;23;20087;-75
2023/12/17 03:43:53;;;;;;;;;;;9.20;99.90;;;;;;6131716;23;20021;-74
2023/12/17 03:46:23;;;;;;;15.00;7.28;;;9.20;99.90;;;;;;6131088;23;19917;-74
2023/12/17 03:48:52;;;;;;;15.68;7.07;;;9.10;99.90;;;;;;6131217;23;20014;-74
2023/12/17 03:51:18;;;;;;;14.77;7.93;;;9.10;99.90;;;;;;6130933;23;20017;-74
2023/12/17 03:53:44;;;;;;;14.52;6.70;;;9.20;99.90;;;;;;6131203;23;20434;-75
2023/12/17 03:56:11;;;;;;;14.70;7.20;;;9.10;99.90;;;;;;6131159;23;20447;-75
2023/12/17 03:58:39;;;;;;;15.13;7.18;;;9.20;99.90;;;;;;6131516;23;20034;-74
2023/12/17 04:01:06;;;;;;;18.77;7.60;;;9.10;99.90;;;;;;6131022;23;20020;-75
2023/12/17 04:03:33;;;;;;;18.77;7.43;;;9.20;99.90;;;;;;6130798;23;20025;-74
2023/12/17 04:06:00;;;;;;;16.20;7.07;;;9.10;99.90;;;;;;6155453;23;20057;-74
2023/12/17 04:08:26;;;;;;;12.38;7.05;;;9.10;99.90;;;;;;6130914;23;20020;-74
2023/12/17 04:10:52;;;;;;;14.55;6.93;;;9.10;99.90;;;;;;6130892;23;20025;-75
2023/12/17 04:13:18;;;;;;;17.67;6.78;;;9.10;99.90;;;;;;6130917;23;20037;-75
2023/12/17 04:15:44;;;;;;;13.00;6.93;;;9.10;99.90;;;;;;6130798;23;20117;-74
2023/12/17 04:18:09;;;;;;;15.45;7.45;;;9.00;99.90;;;;;;6130656;23;20469;-74
2023/12/17 04:20:35;;;;;;;22.35;8.45;;;9.00;99.90;;;;;;6157239;23;20014;-74
2023/12/17 04:23:00;;;;;;;20.23;7.45;;;9.10;99.90;;;;;;6130534;23;20096;-74
2023/12/17 04:25:26;;;;;;;16.75;7.60;;;9.00;99.90;;;;;;6157160;23;20013;-74
2023/12/17 04:27:52;;;;;;;16.00;7.10;;;9.00;99.90;;;;;;6130754;23;20088;-74
2023/12/17 04:30:18;;;;;;;16.98;7.25;;;9.10;99.90;;;;;;6157006;23;20028;-74
2023/12/17 04:32:43;;;;;;;15.93;6.82;;;9.00;99.90;;;;;;6130650;23;20386;-75
2023/12/17 04:35:09;;;;;;;16.05;8.00;;;9.00;99.90;;;;;;6130556;23;20076;-74
2023/12/17 04:37:35;;;;;;;18.67;7.32;;;9.00;99.90;;;;;;6130543;23;20014;-75
2023/12/17 04:40:01;;;;;;;18.00;7.90;;;9.00;99.90;;;;;;6130613;23;20049;-75
2023/12/17 04:42:28;;;;;;;17.20;7.68;;;9.00;99.90;;;;;;6130526;23;20029;-75
2023/12/17 04:44:54;;;;;;;19.73;8.25;;;9.00;99.90;;;;;;6130559;23;20025;-75
2023/12/17 04:47:19;;;;;;;15.50;7.38;;;9.00;99.90;;;;;;6130393;23;20390;-74
2023/12/17 04:49:45;;;;;;;16.85;6.93;;;9.00;99.90;;;;;;6130602;23;20077;-75
2023/12/17 04:52:11;;;;;;;22.42;8.35;;;9.00;99.90;;;;;;6156835;23;20080;-74
2023/12/17 04:54:37;;;;;;;18.02;8.32;;;9.00;99.90;;;;;;6130436;23;20386;-75
2023/12/17 04:57:03;;;;;;;16.63;8.25;;;9.10;99.90;;;;;;6130367;23;20017;-75
2023/12/17 04:59:31;;;;;;;20.05;8.20;;;9.00;99.90;;;;;;6130405;23;20025;-75
2023/12/17 05:01:57;;;;;;;13.55;7.93;;;9.10;99.90;;;;;;6156477;23;20026;-75
2023/12/17 05:04:23;;;;;;;15.30;7.97;;;9.10;99.90;;;;;;6156879;23;20093;-75
2023/12/17 05:06:48;;;;;;;16.95;8.43;;;9.00;99.90;;;;;;6130374;23;20029;-75
2023/12/17 05:09:14;;;;;;;16.45;7.93;;;9.00;99.90;;;;;;6130382;23;20397;-75
2023/12/17 05:11:39;;;;;;;13.60;7.97;;;9.10;99.90;;;;;;6130399;23;20477;-75
2023/12/17 05:14:05;;;;;;;16.27;8.15;;;9.00;99.90;;;;;;6130325;23;20018;-75
2023/12/17 05:16:30;;;;;;;17.95;8.02;;;9.00;99.90;;;;;;6130336;23;20097;-75
2023/12/17 05:18:56;;;;;;;16.98;8.25;;;9.00;99.90;;;;;;6130075;23;20438;-74
2023/12/17 05:21:22;;;;;;;16.33;8.02;;;9.00;99.90;;;;;;6130332;23;20427;-74
2023/12/17 05:23:48;;;;;;;18.40;8.02;;;9.00;99.90;;;;;;6156134;23;20021;-74
2023/12/17 05:26:13;;;;;;;19.38;8.70;;;9.00;99.90;;;;;;6130187;23;20018;-75
2023/12/17 05:28:41;;;;;;;21.00;8.95;;;9.00;99.90;;;;;;6156549;23;20018;-74
2023/12/17 05:31:12;;;;;;;16.77;7.75;;;9.00;99.90;;;;;;6130102;23;20088;-75
2023/12/17 05:33:38;;;;;;;16.80;8.68;;;8.90;99.90;;;;;;6130222;23;20056;-74
2023/12/17 05:36:04;;;;;;;15.65;8.20;;;9.00;99.90;;;;;;6130230;23;20013;-74
2023/12/17 05:38:30;;;;;;;19.75;7.43;;;9.00;99.90;;;;;;6129954;23;20025;-74
2023/12/17 05:40:56;;;;;;;16.15;7.78;;;9.00;99.90;;;;;;6156146;23;20013;-74
2023/12/17 05:43:22;;;;;;;18.42;8.75;;;9.00;99.90;;;;;;6130178;23;20021;-75
2023/12/17 05:45:47;;;;;;;18.65;8.40;;;9.00;99.90;;;;;;6130057;23;20020;-75
2023/12/17 05:48:14;;;;;;;17.45;8.75;;;9.00;99.90;;;;;;6130616;23;20021;-74
2023/12/17 05:50:40;;;;;;;17.40;8.75;;;8.90;99.90;;;;;;6130093;23;20093;-74
2023/12/17 05:53:06;;;;;;;19.58;9.02;;;8.90;99.90;;;;;;6130038;23;20040;-74
2023/12/17 05:55:31;;;;;;;16.48;9.13;;;8.90;99.90;;;;;;6129973;23;20350;-75
2023/12/17 05:57:57;;;;;;;27.15;9.13;;;8.90;99.90;;;;;;6130014;23;20419;-75
2023/12/17 06:00:23;;;;;;;19.75;8.70;;;8.90;99.90;;;;;;6130092;23;20073;-75
2023/12/17 06:02:48;;;;;;;20.58;9.77;;;8.90;99.90;;;;;;6129749;23;20026;-75
2023/12/17 06:05:14;;;;;;;19.27;9.90;;;8.90;99.90;;;;;;6130107;23;20022;-74
2023/12/17 06:07:40;;;;;;;20.42;9.77;;;8.90;99.90;;;;;;6129983;23;20017;-74
2023/12/17 06:10:06;;;;;;;20.13;10.20;;;8.90;99.90;;;;;;6130003;23;20040;-74
2023/12/17 06:12:32;;;;;;;29.75;12.18;;;8.90;99.90;;;;;;6129878;23;20464;-74
2023/12/17 06:14:57;;;;;;;27.45;12.25;;;8.90;99.90;;;;;;6130069;23;20045;-74
2023/12/17 06:17:23;;;;;;;27.73;12.43;;;8.90;99.90;;;;;;6129920;23;20017;-74
2023/12/17 06:19:48;;;;;;;26.92;12.18;;;8.90;99.90;;;;;;6129997;23;20025;-75
2023/12/17 06:22:16;;;;;;;28.38;12.23;;;8.90;99.90;;;;;;6129956;23;20386;-74
2023/12/17 06:24:44;;;;;;;25.75;11.63;;;8.90;99.90;;;;;;6129915;23;20021;-74
2023/12/17 06:27:17;;;;;;;26.17;11.73;;;8.90;99.90;;;;;;6129901;23;20028;-74
2023/12/17 06:29:48;;;;;;;23.88;11.95;;;8.90;99.90;;;;;;6129992;23;20382;-74
2023/12/17 06:32:14;;;;;;;23.95;12.10;;;8.90;99.90;;;;;;6130349;23;20073;-74
2023/12/17 06:34:42;;;;;;;25.75;10.90;;;8.90;99.90;;;;;;6129829;23;20014;-74
2023/12/17 06:37:07;;;;;;;27.75;11.88;;;8.90;99.90;;;;;;6129899;23;20020;-74
2023/12/17 06:39:33;;;;;;;26.95;11.95;;;8.90;99.90;;;;;;6129923;23;20045;-74
2023/12/17 06:41:59;;;;;;;33.38;13.65;;;8.90;99.90;;;;;;6129847;23;20022;-75
2023/12/17 06:44:25;;;;;;;30.27;12.82;;;9.00;99.90;;;;;;6129655;23;20032;-74
2023/12/17 06:46:50;;;;;;;26.60;11.68;;;8.90;99.90;;;;;;6131034;23;20026;-74
2023/12/17 06:49:16;;;;;;;26.02;12.10;;;8.90;99.90;;;;;;6131609;23;20434;-74
2023/12/17 06:51:41;;;;;;;29.67;13.43;;;9.00;99.90;;;;;;6131531;23;20018;-74
2023/12/17 06:54:08;;;;;;;31.27;13.73;;;8.90;99.90;;;;;;6131612;23;20056;-74
2023/12/17 06:56:34;;;;;;;26.27;12.85;;;8.90;99.90;;;;;;6157970;23;20040;-74
2023/12/17 06:59:00;;;;;;;32.63;12.63;;;8.90;99.90;;;;;;6131421;23;20013;-74
2023/12/17 07:01:28;;;;;;;24.63;12.43;;;8.90;99.90;;;;;;6131462;23;20386;-74
2023/12/17 07:03:54;;;;;;;24.80;11.77;;;8.90;99.90;;;;;;6131157;23;20417;-74
2023/12/17 07:06:21;;;;;;;29.05;12.15;;;8.90;99.90;;;;;;6131234;23;20442;-74
2023/12/17 07:08:48;;;;;;;28.05;12.73;;;9.00;99.90;;;;;;6131456;23;20072;-74
2023/12/17 07:11:14;;;;;;;26.77;12.25;;;8.90;99.90;;;;;;6157941;23;20083;-74
2023/12/17 07:13:40;;;;;;;26.58;12.73;;;8.90;99.90;;;;;;6131520;23;20018;-74
2023/12/17 07:16:06;;;;;;;26.38;11.70;;;9.00;99.90;;;;;;6131475;23;20021;-75
2023/12/17 07:18:31;;;;;;;31.65;12.45;;;8.90;99.90;;;;;;6131315;23;20108;-74
2023/12/17 07:20:57;;;;;;;24.05;12.30;;;8.90;99.90;;;;;;6131489;23;20025;-74
2023/12/17 07:23:25;;;;;;;27.95;11.90;;;8.90;99.90;;;;;;6131429;23;20045;-74
2023/12/17 07:25:51;;;;;;;28.70;10.57;;;8.90;99.90;;;;;;6131193;23;20018;-74
2023/12/17 07:28:16;;;;;;;28.58;13.40;;;9.00;99.90;;;;;;6131421;23;20393;-74
2023/12/17 07:30:42;;;;;;;23.33;12.27;;;9.00;99.90;;;;;;6131340;23;20009;-74
2023/12/17 07:33:08;;;;;;;28.73;11.35;;;9.00;99.90;;;;;;6157613;23;20338;-74
2023/12/17 07:35:43;;;;;;;23.90;10.32;;;8.90;99.90;;;;;;6167639;23;20452;-74
2023/12/17 07:38:10;;;;;;;32.00;11.63;;;9.00;99.90;;;;;;6190363;23;20017;-74
2023/12/17 07:40:35;;;;;;;27.83;10.63;;;8.90;99.90;;;;;;6191118;23;20012;-74
2023/12/17 07:43:01;;;;;;;26.27;10.63;;;9.00;99.90;;;;;;6190423;23;20081;-74
2023/12/17 07:45:30;;;;;;;27.05;10.93;;;9.00;99.90;;;;;;6190302;23;20012;-74
2023/12/17 07:47:55;;;;;;;28.80;11.15;;;8.90;99.90;;;;;;6190431;23;20476;-75
2023/12/17 07:50:21;;;;;;;25.50;10.50;;;9.00;99.90;;;;;;6190475;23;20012;-74
2023/12/17 07:52:46;;;;;;;24.77;9.65;;;8.90;99.90;;;;;;6190569;23;20020;-74
2023/12/17 07:55:13;;;;;;;23.52;10.23;;;8.90;99.90;;;;;;6190423;23;20096;-74
2023/12/17 07:57:38;;;;;;;28.48;9.75;;;8.90;99.90;;;;;;6189680;23;20373;-74
2023/12/17 08:00:05;;;;;;;27.88;10.38;;;8.90;99.90;;;;;;6216175;23;20083;-74
2023/12/17 08:02:30;;;;;;;25.45;10.18;;;8.90;99.90;;;;;;6215958;23;20056;-74
2023/12/17 08:04:56;;;;;;;28.58;9.60;;;8.90;99.90;;;;;;6190188;23;20314;-74
2023/12/17 08:07:21;;;;;;;18.52;8.90;;;8.90;99.90;;;;;;6190323;23;20092;-74
2023/12/17 08:09:47;;;;;;;24.67;9.82;;;8.90;99.90;;;;;;6190189;23;20012;-74
2023/12/17 08:12:13;;;;;;;26.77;9.48;;;8.90;99.90;;;;;;6189903;23;20016;-74
2023/12/17 08:14:38;;;;;;;27.05;10.20;;;8.90;99.90;;;;;;6190147;23;20021;-75
2023/12/17 08:17:04;;;;;;;36.53;12.68;;;8.90;99.90;;;;;;6189898;23;20012;-74
2023/12/17 08:19:30;;;;;;;34.67;12.68;;;8.90;99.90;;;;;;6190080;23;20028;-75
2023/12/17 08:21:55;;;;;;;34.90;15.48;;;8.90;99.90;;;;;;6190056;23;20095;-74
2023/12/17 08:24:21;;;;;;;38.92;15.18;;;8.90;99.90;;;;;;6189988;23;20020;-74
2023/12/17 08:26:50;;;;;;;32.80;14.80;;;8.90;99.90;;;;;;6190134;23;20031;-75
2023/12/17 08:29:16;;;;;;;36.05;15.95;;;8.90;99.90;;;;;;6189905;23;20024;-75
2023/12/17 08:31:45;;;;;;;38.55;17.80;;;8.90;99.90;;;;;;6189794;23;20024;-75
2023/12/17 08:34:11;;;;;;;44.42;20.13;;;8.80;99.90;;;;;;6216574;23;20067;-75
2023/12/17 08:36:36;;;;;;;41.22;22.67;;;8.80;99.90;;;;;;6189981;23;20024;-75
2023/12/17 08:39:05;;;;;;;47.13;24.33;;;8.90;99.90;;;;;;6216649;23;20024;-74
2023/12/17 08:41:33;;;;;;;47.70;24.85;;;8.80;99.90;;;;;;6189873;23;20048;-75
2023/12/17 08:43:59;;;;;;;39.40;21.58;;;8.80;99.90;;;;;;6216294;23;20087;-75
2023/12/17 08:46:25;;;;;;;44.45;22.67;;;8.80;99.90;;;;;;6216422;23;20422;-75
2023/12/17 08:48:51;;;;;;;50.20;27.25;;;8.80;99.90;;;;;;6189859;23;20463;-75
2023/12/17 08:51:16;;;;;;;40.05;22.05;;;8.80;99.90;;;;;;6189773;23;20020;-75
2023/12/17 08:53:42;;;;;;;37.72;19.25;;;8.80;99.90;;;;;;6188736;23;20441;-75
2023/12/17 08:56:08;;;;;;;37.72;19.58;;;8.80;99.90;;;;;;6189303;23;20016;-76
2023/12/17 08:58:34;;;;;;;36.70;19.75;;;8.80;99.90;;;;;;6189356;23;20016;-76
2023/12/17 09:00:59;;;;;;;40.67;20.35;;;8.80;99.90;;;;;;6189434;23;20055;-76
2023/12/17 09:03:25;;;;;;;39.95;20.17;;;8.80;99.90;;;;;;6189543;23;20147;-75
2023/12/17 09:05:50;;;;;;;43.78;21.83;;;8.70;99.90;;;;;;6189462;23;20031;-74
2023/12/17 09:08:16;;;;;;;34.13;19.45;;;8.70;99.90;;;;;;6216133;23;20063;-75
2023/12/17 09:10:42;;;;;;;37.70;20.52;;;8.80;99.90;;;;;;6189297;23;20013;-75
2023/12/17 09:13:09;;;;;;;38.33;19.05;;;8.80;99.90;;;;;;6189365;23;20082;-75
2023/12/17 09:15:36;;;;;;;42.75;20.10;;;8.70;99.90;;;;;;6189362;23;20020;-75
2023/12/17 09:18:03;;;;;;;42.03;18.80;;;8.80;99.90;;;;;;6189274;23;20380;-75
2023/12/17 09:20:29;;;;;;;41.55;19.52;;;8.80;99.90;;;;;;6189263;23;20061;-75
2023/12/17 09:22:55;;;;;;;43.40;21.08;;;8.80;99.90;;;;;;6189135;23;20017;-77
2023/12/17 09:25:20;;;;;;;40.25;19.92;;;8.80;99.90;;;;;;6189347;23;20021;-75
2023/12/17 09:27:46;;;;;;;37.10;19.00;;;8.80;99.90;;;;;;6189249;23;20039;-75
2023/12/17 09:30:12;;;;;;;35.25;16.60;;;8.80;99.90;;;;;;6189266;23;20012;-75
2023/12/17 09:32:38;;;;;;;33.72;16.33;;;8.80;99.90;;;;;;6189221;23;20444;-75
2023/12/17 09:35:05;;;;;;;26.80;13.75;;;8.90;99.90;;;;;;6188927;23;20088;-75
2023/12/17 09:37:31;;;;;;;25.48;11.90;;;8.90;99.90;;;;;;6215635;23;20021;-75
2023/12/17 09:39:57;;;;;;;40.53;13.95;;;8.90;99.90;;;;;;6189224;23;20021;-75
2023/12/17 09:42:23;;;;;;;30.42;12.77;;;8.90;99.90;;;;;;6189117;23;20024;-75
2023/12/17 09:44:48;;;;;;;30.67;12.55;;;9.00;99.90;;;;;;6189000;23;20345;-75
2023/12/17 09:47:15;;;;;;;31.40;12.55;;;9.00;99.90;;;;;;6188930;23;20400;-76
2023/12/17 09:49:40;;;;;;;33.20;12.95;;;9.00;99.90;;;;;;6189156;23;20028;-76
2023/12/17 09:52:08;;;;;;;35.05;13.90;;;9.00;99.90;;;;;;6188911;23;20043;-76
2023/12/17 09:54:34;;;;;;;32.28;14.85;;;9.00;99.90;;;;;;6215561;23;20337;-76
2023/12/17 09:57:02;;;;;;;31.65;15.32;;;9.10;99.90;;;;;;6188910;23;20445;-76
2023/12/17 09:59:28;;;;;;;30.80;14.27;;;9.10;99.90;;;;;;6189089;23;20016;-75
2023/12/17 10:01:55;;;;;;;33.08;14.00;;;9.10;99.90;;;;;;6215610;23;20058;-76
2023/12/17 10:04:24;;;;;;;40.58;14.55;;;9.10;99.90;;;;;;6189094;23;20020;-75
2023/12/17 10:06:51;;;;;;;34.45;14.10;;;9.20;99.90;;;;;;6188907;23;20028;-75
2023/12/17 10:09:16;;;;;;;33.13;14.57;;;9.20;99.90;;;;;;6188987;23;20017;-76
2023/12/17 10:11:42;;;;;;;34.92;14.65;;;9.10;99.90;;;;;;6189057;23;20340;-75
2023/12/17 10:14:25;;;;;;;35.30;14.93;;;9.20;99.90;;;;;;6189142;23;20336;-76
2023/12/17 10:16:51;;;;;;;34.30;16.58;;;9.20;99.90;;;;;;6188904;23;20392;-76
2023/12/17 10:19:18;;;;;;;43.47;15.88;;;9.20;99.90;;;;;;6215837;23;20424;-75
2023/12/17 10:21:43;;;;;;;33.83;14.40;;;9.20;99.90;;;;;;6190109;23;20051;-76
2023/12/17 10:24:10;;;;;;;32.35;13.98;;;9.20;99.90;;;;;;6190996;23;20016;-75
2023/12/17 10:26:46;;;;;;;41.10;15.15;;;9.20;99.90;;;;;;6217664;23;20064;-75
2023/12/17 10:29:18;;;;;;;36.75;14.95;;;9.20;99.90;;;;;;6190817;23;20411;-75
2023/12/17 10:31:47;;;;;;;35.92;14.38;;;9.20;99.90;;;;;;6191104;23;20063;-75
2023/12/17 10:34:22;;;;;;;36.75;13.30;;;9.20;99.90;;;;;;6190477;23;20449;-76
2023/12/17 10:36:49;;;;;;;33.47;13.88;;;9.30;99.90;;;;;;6190796;23;20020;-76
2023/12/17 10:39:16;;;;;;;36.05;13.18;;;9.30;99.90;;;;;;6190525;23;20091;-75
2023/12/17 10:41:42;;;;;;;33.58;14.13;;;9.30;99.90;;;;;;6191293;23;20088;-75
2023/12/17 10:44:12;;;;;;;39.92;13.95;;;9.30;99.90;;;;;;6217656;23;20095;-76
2023/12/17 10:46:44;;;;;;;31.58;14.77;;;9.30;99.90;;;;;;6190957;23;20016;-75
2023/12/17 10:49:13;;;;;;;36.90;12.93;;;9.30;99.90;;;;;;6190706;23;20071;-75
2023/12/17 10:51:40;;;;;;;34.13;13.65;;;9.30;99.90;;;;;;6217655;23;20021;-75
2023/12/17 10:54:06;;;;;;;30.88;13.45;;;9.30;99.90;;;;;;6190681;23;20021;-75
2023/12/17 10:56:40;;;;;;;32.55;13.43;;;9.40;99.90;;;;;;6190489;23;20330;-76
2023/12/17 10:59:11;;;;;;;30.92;13.45;;;9.30;99.90;;;;;;6190451;23;20013;-75
2023/12/17 11:01:38;;;;;;;33.35;14.93;;;9.30;99.90;;;;;;6190560;23;20445;-75
2023/12/17 11:04:06;;;;;;;32.58;15.38;;;9.30;99.90;;;;;;6190709;23;20075;-75
2023/12/17 11:06:32;;;;;;;33.13;15.13;;;9.40;99.90;;;;;;6190535;23;20020;-75
2023/12/17 11:08:58;;;;;;;33.70;15.35;;;9.40;99.90;;;;;;6190378;23;20092;-76
2023/12/17 11:11:24;;;;;;;41.33;14.88;;;9.40;99.90;;;;;;6190648;23;20099;-76
2023/12/17 11:13:49;;;;;;;38.08;15.70;;;9.50;99.90;;;;;;6216767;23;20051;-76
2023/12/17 11:16:25;;;;;;;32.35;16.90;;;9.40;99.90;;;;;;6190498;23;20077;-76
2023/12/17 11:18:51;;;;;;;42.50;16.02;;;9.40;99.90;;;;;;6190368;23;20443;-76
2023/12/17 11:21:17;;;;;;;35.22;15.73;;;9.40;99.90;;;;;;6190479;23;20318;-76
2023/12/17 11:23:47;;;;;;;34.67;15.13;;;9.50;99.90;;;;;;6190388;23;20344;-76
2023/12/17 11:26:15;;;;;;;30.63;14.70;;;9.60;99.90;;;;;;6217339;23;20019;-76
2023/12/17 11:28:41;;;;;;;31.85;15.32;;;9.50;99.90;;;;;;6217290;23;20020;-76
2023/12/17 11:31:08;;;;;;;39.67;15.15;;;9.60;99.90;;;;;;6190218;23;20027;-76
2023/12/17 11:33:36;;;;;;;35.72;14.15;;;9.60;99.90;;;;;;6190225;23;20467;-76
2023/12/17 11:36:03;;;;;;;29.17;14.25;;;9.60;99.90;;;;;;6190069;23;20020;-75
2023/12/17 11:38:29;;;;;;;37.42;13.80;;;9.60;99.90;;;;;;6216707;23;20167;-76
2023/12/17 11:40:55;;;;;;;28.95;13.80;;;9.60;99.90;;;;;;6190041;23;20023;-75
2023/12/17 11:43:23;;;;;;;35.78;14.13;;;9.60;99.90;;;;;;6190247;23;20021;-76
2023/12/17 11:45:50;;;;;;;35.55;15.13;;;9.60;99.90;;;;;;6190181;23;20034;-75
2023/12/17 11:48:17;;;;;;;32.63;13.98;;;9.60;99.90;;;;;;6190198;23;20086;-75
2023/12/17 11:50:48;;;;;;;30.17;13.63;;;9.60;99.90;;;;;;6190267;23;20059;-74
2023/12/17 11:53:16;;;;;;;33.90;13.90;;;9.70;99.90;;;;;;6190144;23;20055;-76
2023/12/17 11:55:45;;;;;;;29.58;12.80;;;9.70;99.90;;;;;;6189827;23;20055;-74
2023/12/17 11:58:11;;;;;;;29.88;13.07;;;9.70;99.90;;;;;;6190025;23;20330;-74
2023/12/17 12:00:37;;;;;;;29.52;12.68;;;9.60;99.90;;;;;;6189886;23;20067;-75
2023/12/17 12:03:04;;;;;;;42.30;14.13;;;9.70;99.90;;;;;;6190001;23;20021;-75
2023/12/17 12:05:30;;;;;;;28.27;13.40;;;9.60;99.90;;;;;;6189918;23;20016;-76
2023/12/17 12:07:57;;;;;;;29.00;12.88;;;9.60;99.90;;;;;;6189991;23;20017;-75
2023/12/17 12:10:23;;;;;;;33.58;14.00;;;9.70;99.90;;;;;;6189903;23;20028;-75
2023/12/17 12:13:06;;;;;;;28.77;14.23;;;9.70;99.90;;;;;;6190337;23;20103;-75
2023/12/17 12:15:35;;;;;;;27.55;13.65;;;9.70;99.90;;;;;;6216794;23;20020;-75
2023/12/17 12:18:01;;;;;;;30.50;14.95;;;9.70;99.90;;;;;;6189800;23;20025;-75
2023/12/17 12:20:37;;;;;;;38.65;13.80;;;9.60;99.90;;;;;;6189847;23;20171;-75
2023/12/17 12:23:08;;;;;;;31.35;14.52;;;9.70;99.90;;;;;;6189708;23;20369;-75
2023/12/17 12:25:34;;;;;;;26.55;14.40;;;9.70;99.90;;;;;;6189908;23;20336;-75
2023/12/17 12:28:00;;;;;;;27.15;14.95;;;9.70;99.90;;;;;;6189904;23;20460;-75
2023/12/17 12:30:29;;;;;;;30.38;14.60;;;9.60;99.90;;;;;;6189742;23;20036;-75
2023/12/17 12:32:55;;;;;;;31.77;16.88;;;9.70;99.90;;;;;;6189687;23;20027;-75
2023/12/17 12:35:23;;;;;;;35.03;21.42;;;9.70;99.90;;;;;;6189367;23;20100;-75
2023/12/17 12:37:49;;;;;;;36.97;16.83;;;9.70;99.90;;;;;;6189601;23;20051;-75
2023/12/17 12:40:15;;;;;;;32.45;14.05;;;9.70;99.90;;;;;;6189616;23;20023;-75